Time;durP1;ratioP1;P1;durP2;ratioP2;P2;SDS_P1;SDS_P2;PMS_P1;PMS_P2;Temp;Humidity;BMP_temperature;BMP_pressure;BME280_temperature;BME280_humidity;BME280_pressure;Samples;Min_cycle;Max_cycle;Signal;HPM_P1;HPM_P2
2022/12/01 00:02:12;;;;;;;;;;;22.20;89.50;;;;;;5093752;28;19908;-50
2022/12/01 00:04:37;;;;;;;;;;;22.20;89.50;;;;;;5093373;28;19962;-50
2022/12/01 00:07:02;;;;;;;;;;;22.20;89.40;;;;;;5093659;28;19908;-49
2022/12/01 00:12:12;;;;;;;;;;;22.20;89.40;;;;;;5093133;28;19989;-48
2022/12/01 00:14:37;;;;;;;;;;;22.20;89.30;;;;;;5093565;28;19915;-49
2022/12/01 00:17:04;;;;;;;;;;;22.20;89.40;;;;;;5096219;28;19910;-50
2022/12/01 00:19:29;;;;;;;;;;;22.20;89.40;;;;;;5097263;28;19908;-51
2022/12/01 00:21:55;;;;;;;;;;;22.20;89.30;;;;;;5096811;28;19916;-47
2022/12/01 00:24:22;;;;;;;;;;;22.20;89.40;;;;;;5078981;28;19908;-49
2022/12/01 00:26:48;;;;;;;;;;;22.20;89.30;;;;;;5079033;28;20007;-52
2022/12/01 00:29:13;;;;;;;;;;;22.20;89.30;;;;;;5096911;28;20037;-47
2022/12/01 00:31:39;;;;;;;;;;;22.20;89.30;;;;;;5096968;28;19912;-49
2022/12/01 00:34:04;;;;;;;;;;;22.20;89.30;;;;;;5096851;28;19912;-50
2022/12/01 00:36:30;;;;;;;;;;;22.20;89.20;;;;;;5096839;28;20011;-48
2022/12/01 00:38:56;;;;;;;;;;;22.20;89.30;;;;;;5096843;28;19977;-50
2022/12/01 00:41:22;;;;;;;;;;;22.20;89.30;;;;;;5096686;28;19947;-47
2022/12/01 00:43:48;;;;;;;;;;;22.30;89.40;;;;;;5096695;28;19920;-47
2022/12/01 00:46:13;;;;;;;;;;;22.30;89.40;;;;;;5096962;28;19908;-48
2022/12/01 00:48:38;;;;;;;;;;;22.20;89.00;;;;;;5096607;28;19999;-47
2022/12/01 00:51:04;;;;;;;;;;;22.30;89.00;;;;;;5096655;28;19908;-47
2022/12/01 00:53:30;;;;;;;;;;;22.30;89.00;;;;;;5096495;28;19912;-49
2022/12/01 00:55:55;;;;;;;;;;;22.30;89.00;;;;;;5096321;28;19967;-49
2022/12/01 00:58:21;;;;;;;;;;;22.30;89.10;;;;;;5096542;28;19931;-47
2022/12/01 01:00:47;;;;;;;;;;;22.30;89.00;;;;;;5096794;28;19912;-47
2022/12/01 01:03:12;;;;;;;;;;;22.30;89.10;;;;;;5096114;28;19954;-47
2022/12/01 01:05:39;;;;;;;;;;;22.30;89.00;;;;;;5096036;28;19970;-47
2022/12/01 01:08:08;;;;;;;;;;;22.30;89.00;;;;;;5096011;28;19908;-47
2022/12/01 01:10:40;;;;;;;;;;;22.30;89.00;;;;;;5095967;28;20271;-51
2022/12/01 01:13:06;;;;;;;;;;;22.30;89.10;;;;;;5096236;28;19965;-47
2022/12/01 01:15:32;;;;;;;;;;;22.30;89.10;;;;;;5096074;28;19916;-49
2022/12/01 01:17:57;;;;;;;;;;;22.30;89.00;;;;;;5095841;28;19912;-48
2022/12/01 01:20:23;;;;;;;;;;;22.30;89.10;;;;;;5096085;28;19933;-47
2022/12/01 01:22:48;;;;;;;;;;;22.30;89.10;;;;;;5095719;28;19909;-50
2022/12/01 01:25:14;;;;;;;;;;;22.30;89.10;;;;;;5061138;28;19957;-47
2022/12/01 01:27:39;;;;;;;;;;;22.30;89.00;;;;;;5094794;28;19908;-50
2022/12/01 01:30:05;;;;;;;;;;;22.30;89.00;;;;;;5095835;28;20294;-51
2022/12/01 01:32:31;;;;;;;;;;;22.40;89.10;;;;;;5095760;28;19912;-48
2022/12/01 01:34:56;;;;;;;;;;;22.40;89.00;;;;;;5095533;28;19916;-50
2022/12/01 01:37:21;;;;;;;;;;;22.40;88.90;;;;;;5095734;28;19912;-48
2022/12/01 01:39:47;;;;;;;;;;;22.40;89.00;;;;;;5095635;28;20005;-53
2022/12/01 01:42:13;;;;;;;;;;;22.40;88.90;;;;;;5095319;28;19914;-48
2022/12/01 01:44:50;;;;;;;;;;;22.40;88.80;;;;;;5077431;28;19934;-49
2022/12/01 01:47:25;;;;;;;;;;;22.40;89.00;;;;;;5095496;28;19954;-51
2022/12/01 01:49:51;;;;;;;;;;;22.40;89.00;;;;;;5095462;28;19990;-47
2022/12/01 01:52:17;;;;;;;;;;;22.40;89.10;;;;;;5077163;28;19916;-49
2022/12/01 01:54:45;;;;;;;;;;;22.40;88.90;;;;;;5095392;28;19912;-50
2022/12/01 01:57:12;;;;;;;;;;;22.40;88.90;;;;;;5095650;28;19912;-51
2022/12/01 01:59:40;;;;;;;;;;;22.40;88.90;;;;;;5095314;28;19956;-48
2022/12/01 02:02:07;;;;;;;;;;;22.40;88.90;;;;;;5095193;28;19912;-50
2022/12/01 02:04:34;;;;;;;;;;;22.40;88.80;;;;;;5093153;28;20053;-51
2022/12/01 02:07:00;;;;;;;;;;;22.40;88.60;;;;;;5097288;28;19961;-49
2022/12/01 02:09:25;;;;;;;;;;;22.40;88.30;;;;;;5096396;28;19955;-50
2022/12/01 02:11:59;;;;;;;;;;;22.40;88.50;;;;;;5093524;28;19920;-47
2022/12/01 02:14:34;;;;;;;;;;;22.50;88.80;;;;;;5098296;28;19919;-51
2022/12/01 02:17:14;;;;;;;;;;;22.40;88.70;;;;;;5103391;28;20309;-49
2022/12/01 02:19:58;;;;;;;;;;;22.50;88.70;;;;;;5114974;28;19943;-49
2022/12/01 02:22:32;;;;;;;;;;;22.50;88.70;;;;;;5098770;28;19908;-48
2022/12/01 02:25:00;;;;;;;;;;;22.40;88.70;;;;;;5094724;28;20309;-47
2022/12/01 02:27:29;;;;;;;;;;;22.50;88.70;;;;;;5094538;28;19909;-48
2022/12/01 02:30:00;;;;;;;;;;;22.50;88.40;;;;;;5094862;28;19915;-50
2022/12/01 02:32:41;;;;;;;;;;;22.50;88.40;;;;;;5081191;28;19916;-48
2022/12/01 02:35:15;;;;;;;;;;;22.50;88.70;;;;;;5074531;28;20018;-47
2022/12/01 02:37:46;;;;;;;;;;;22.60;88.70;;;;;;5083826;28;20015;-52
2022/12/01 02:40:12;;;;;;;;;;;22.60;88.80;;;;;;5094447;28;19908;-52
2022/12/01 02:42:52;;;;;;;;;;;22.60;88.90;;;;;;5094569;28;19999;-52
2022/12/01 02:45:30;;;;;;;;;;;22.60;88.80;;;;;;5080442;28;19917;-52
2022/12/01 02:47:59;;;;;;;;;;;22.60;88.70;;;;;;5094182;28;19962;-50
2022/12/01 02:50:25;;;;;;;;;;;22.60;88.70;;;;;;5094436;28;19908;-50
2022/12/01 02:52:52;;;;;;;;;;;22.60;88.70;;;;;;5094038;28;19964;-46
2022/12/01 02:55:17;;;;;;;;;;;22.60;89.30;;;;;;5094148;28;19916;-47
2022/12/01 02:57:43;;;;;;;;;;;22.60;88.80;;;;;;5094436;28;20465;-49
2022/12/01 03:00:12;;;;;;;;;;;22.60;88.70;;;;;;5094100;28;20384;-51
2022/12/01 03:02:43;;;;;;;;;;;22.60;88.70;;;;;;5094410;28;19912;-50
2022/12/01 03:05:17;;;;;;;;;;;22.60;88.70;;;;;;5094358;28;20003;-48
2022/12/01 03:08:01;;;;;;;;;;;22.60;88.90;;;;;;5094406;28;20258;-48
2022/12/01 03:10:30;;;;;;;;;;;22.60;89.30;;;;;;5076100;28;19927;-50
2022/12/01 03:13:05;;;;;;;;;;;22.60;88.80;;;;;;5079976;28;20430;-47
2022/12/01 03:15:34;;;;;;;;;;;22.50;88.80;;;;;;5093879;28;20002;-50
2022/12/01 03:18:18;;;;;;;;;;;22.50;88.70;;;;;;5094136;28;19908;-46
2022/12/01 03:20:58;;;;;;;;;;;22.50;88.70;;;;;;5093746;28;20002;-47
2022/12/01 03:23:25;;;;;;;;;;;22.50;88.60;;;;;;5094155;28;19909;-51
2022/12/01 03:25:53;;;;;;;;;;;22.50;88.50;;;;;;5093899;28;19908;-47
2022/12/01 03:28:20;;;;;;;;;;;22.50;88.60;;;;;;5080292;28;20374;-47
2022/12/01 03:30:47;;;;;;;;;;;22.50;88.60;;;;;;5073668;28;20050;-50
2022/12/01 03:33:19;;;;;;;;;;;22.50;88.60;;;;;;5080456;28;19912;-47
2022/12/01 03:35:48;;;;;;;;;;;22.60;88.60;;;;;;5075887;28;20275;-49
2022/12/01 03:38:20;;;;;;;;;;;22.60;88.60;;;;;;5093921;28;19915;-51
2022/12/01 03:40:46;;;;;;;;;;;22.60;88.50;;;;;;5093946;28;19908;-47
2022/12/01 03:43:18;;;;;;;;;;;22.60;88.50;;;;;;5092842;28;20366;-49
2022/12/01 03:46:22;;;;;;;;;;;22.60;88.30;;;;;;5091586;28;19908;-48
2022/12/01 03:48:48;;;;;;;;;;;22.60;88.60;;;;;;4992078;28;20328;-50
2022/12/01 03:51:14;;;;;;;;;;;22.60;88.50;;;;;;4993906;28;19910;-48
2022/12/01 03:54:14;;;;;;;;;;;22.60;88.50;;;;;;5042957;28;19916;-47
2022/12/01 03:56:46;;;;;;;;;;;22.60;88.50;;;;;;4979464;28;19917;-51
2022/12/01 03:59:12;;;;;;;;;;;22.60;88.50;;;;;;5080237;28;19908;-50
2022/12/01 04:01:38;;;;;;;;;;;22.60;88.50;;;;;;5097292;28;19913;-50
2022/12/01 04:04:05;;;;;;;;;;;22.60;88.50;;;;;;5079490;28;19914;-48
2022/12/01 04:06:31;;;;;;;;;;;22.60;88.60;;;;;;5097263;28;19970;-49
2022/12/01 04:08:56;;;;;;;;;;;22.60;88.50;;;;;;5097429;28;20355;-49
2022/12/01 04:14:06;;;;;;;;;;;22.50;88.40;;;;;;5097133;28;20445;-50
2022/12/01 04:16:31;;;;;;;;;;;22.50;88.50;;;;;;5097641;28;19943;-49
2022/12/01 04:18:57;;;;;;;;;;;22.50;88.50;;;;;;5097261;28;20006;-48
2022/12/01 04:21:22;;;;;;;;;;;22.50;88.40;;;;;;5097209;28;19915;-52
2022/12/01 04:24:00;;;;;;;;;;;22.50;88.40;;;;;;5097183;28;19908;-47
2022/12/01 04:26:35;;;;;;;;;;;22.50;88.50;;;;;;5097020;28;20335;-51
2022/12/01 04:29:05;;;;;;;;;;;22.50;88.50;;;;;;5097228;28;19954;-52
2022/12/01 04:31:31;;;;;;;;;;;22.50;88.50;;;;;;5097051;28;19915;-49
2022/12/01 04:33:57;;;;;;;;;;;22.50;88.60;;;;;;5096857;28;20267;-49
2022/12/01 04:36:23;;;;;;;;;;;22.40;88.60;;;;;;5096885;28;19912;-51
2022/12/01 04:38:48;;;;;;;;;;;22.40;88.60;;;;;;5096789;28;19915;-52
2022/12/01 04:41:14;;;;;;;;;;;22.40;88.70;;;;;;5096529;28;20343;-49
2022/12/01 04:43:39;;;;;;;;;;;22.40;89.30;;;;;;5096590;28;20278;-47
2022/12/01 04:46:05;;;;;;;;;;;22.40;88.70;;;;;;5096463;28;19974;-48
2022/12/01 04:48:32;;;;;;;;;;;22.40;88.70;;;;;;5096378;28;19909;-47
2022/12/01 04:50:58;;;;;;;;;;;22.40;88.80;;;;;;5096282;28;20006;-50
2022/12/01 04:53:23;;;;;;;;;;;22.40;88.80;;;;;;5096163;28;20032;-49
2022/12/01 04:55:49;;;;;;;;;;;22.50;88.80;;;;;;5078334;28;19912;-48
2022/12/01 04:58:15;;;;;;;;;;;22.50;88.80;;;;;;5096468;28;19996;-49
2022/12/01 05:00:41;;;;;;;;;;;22.50;88.80;;;;;;5096417;28;19998;-48
2022/12/01 05:03:06;;;;;;;;;;;22.50;88.80;;;;;;5077922;28;19948;-48
2022/12/01 05:05:32;;;;;;;;;;;22.50;88.70;;;;;;5078164;28;20363;-47
2022/12/01 05:07:58;;;;;;;;;;;22.50;88.60;;;;;;5078063;28;19908;-48
2022/12/01 05:10:23;;;;;;;;;;;22.50;88.60;;;;;;5095836;28;19920;-50
2022/12/01 05:12:49;;;;;;;;;;;22.50;88.60;;;;;;5096069;28;19912;-48
2022/12/01 05:15:15;;;;;;;;;;;22.50;88.60;;;;;;5095834;28;19967;-49
2022/12/01 05:17:40;;;;;;;;;;;22.50;88.50;;;;;;5095943;28;19912;-47
2022/12/01 05:22:51;;;;;;;;;;;22.50;88.50;;;;;;5095726;28;20007;-48
2022/12/01 05:25:19;;;;;;;;;;;22.50;88.50;;;;;;5095945;28;19915;-48
2022/12/01 05:27:45;;;;;;;;;;;22.50;88.50;;;;;;5095472;28;19908;-47
2022/12/01 05:30:10;;;;;;;;;;;22.50;88.50;;;;;;5095594;28;19916;-47
2022/12/01 05:32:36;;;;;;;;;;;22.50;88.50;;;;;;5095688;28;19919;-48
2022/12/01 05:35:01;;;;;;;;;;;22.50;88.50;;;;;;5095531;28;19912;-49
2022/12/01 05:37:32;;;;;;;;;;;22.50;88.50;;;;;;5077490;28;19982;-48
2022/12/01 05:39:57;;;;;;;;;;;22.50;88.60;;;;;;5095537;28;19957;-51
2022/12/01 05:42:23;;;;;;;;;;;22.50;88.50;;;;;;5095697;28;19912;-48
2022/12/01 05:44:48;;;;;;;;;;;22.50;88.30;;;;;;5095349;28;19915;-51
2022/12/01 05:47:13;;;;;;;;;;;22.50;88.30;;;;;;5095326;28;19908;-48
2022/12/01 05:49:39;;;;;;;;;;;22.50;88.30;;;;;;5095122;28;19908;-51
2022/12/01 05:52:04;;;;;;;;;;;22.50;88.40;;;;;;5095708;28;19916;-47
2022/12/01 05:54:30;;;;;;;;;;;22.50;88.30;;;;;;5095308;28;19916;-51
2022/12/01 05:56:55;;;;;;;;;;;22.50;88.50;;;;;;5094984;28;20004;-50
2022/12/01 05:59:21;;;;;;;;;;;22.60;88.50;;;;;;5095205;28;19908;-50
2022/12/01 06:01:46;;;;;;;;;;;22.50;88.40;;;;;;5094997;28;20346;-49
2022/12/01 06:04:12;;;;;;;;;;;22.60;88.40;;;;;;5094797;28;19908;-50
2022/12/01 06:06:37;;;;;;;;;;;22.60;88.50;;;;;;5094742;28;19915;-51
2022/12/01 06:09:03;;;;;;;;;;;22.60;88.40;;;;;;5095028;28;20262;-51
2022/12/01 06:11:28;;;;;;;;;;;22.60;88.30;;;;;;5095036;28;19927;-53
2022/12/01 06:13:54;;;;;;;;;;;22.60;88.30;;;;;;5093944;28;20393;-50
2022/12/01 06:16:19;;;;;;;;;;;22.60;88.40;;;;;;5094897;28;19912;-51
2022/12/01 06:18:45;;;;;;;;;;;22.60;88.30;;;;;;5094746;28;19908;-49
2022/12/01 06:21:10;;;;;;;;;;;22.60;88.20;;;;;;5094382;28;19951;-50
2022/12/01 06:23:35;;;;;;;;;;;22.60;88.20;;;;;;5094320;28;19916;-48
2022/12/01 06:26:01;;;;;;;;;;;22.60;88.20;;;;;;5094228;28;19923;-48
2022/12/01 06:28:26;;;;;;;;;;;22.60;88.30;;;;;;5094361;28;19916;-51
2022/12/01 06:30:52;;;;;;;;;;;22.60;88.20;;;;;;5092638;28;20278;-48
2022/12/01 06:33:17;;;;;;;;;;;22.60;87.90;;;;;;5092791;28;19985;-48
2022/12/01 06:35:43;;;;;;;;;;;22.60;88.10;;;;;;5096886;28;19916;-52
2022/12/01 06:38:08;;;;;;;;;;;22.60;88.20;;;;;;5097747;28;19912;-49
2022/12/01 06:40:34;;;;;;;;;;;22.60;88.20;;;;;;5082586;28;20422;-52
2022/12/01 06:43:01;;;;;;;;;;;22.60;88.20;;;;;;5096444;28;19915;-50
2022/12/01 06:45:27;;;;;;;;;;;22.60;87.30;;;;;;5086241;28;19986;-53
2022/12/01 06:47:53;;;;;;;;;;;22.60;87.60;;;;;;5111168;28;19912;-52
2022/12/01 06:50:19;;;;;;;;;;;22.60;88.00;;;;;;5095363;28;19912;-48
2022/12/01 06:52:44;;;;;;;;;;;22.60;88.10;;;;;;5094855;28;20310;-50
2022/12/01 06:55:10;;;;;;;;;;;22.60;88.00;;;;;;5103978;28;19922;-48
2022/12/01 06:57:35;;;;;;;;;;;22.50;87.60;;;;;;5110125;28;20389;-46
2022/12/01 07:00:01;;;;;;;;;;;22.50;87.40;;;;;;5110449;28;19958;-50
2022/12/01 07:02:26;;;;;;;;;;;22.50;87.70;;;;;;5083170;28;19916;-48
2022/12/01 07:04:51;;;;;;;;;;;22.50;88.30;;;;;;5111093;28;19912;-51
2022/12/01 07:07:17;;;;;;;;;;;22.40;88.70;;;;;;5114267;28;20350;-48
2022/12/01 07:09:43;;;;;;;;;;;22.40;88.80;;;;;;5111037;28;19911;-50
2022/12/01 07:12:08;;;;;;;;;;;22.40;89.10;;;;;;5108499;28;20334;-49
2022/12/01 07:14:34;;;;;;;;;;;22.40;89.40;;;;;;5112416;28;20457;-47
2022/12/01 07:17:00;;;;;;;;;;;22.30;89.40;;;;;;5102635;28;19912;-52
2022/12/01 07:19:25;;;;;;;;;;;22.30;89.50;;;;;;5112068;28;19911;-51
2022/12/01 07:21:51;;;;;;;;;;;22.20;89.50;;;;;;5099525;28;20042;-52
2022/12/01 07:24:16;;;;;;;;;;;22.20;89.40;;;;;;5103539;28;19908;-53
2022/12/01 07:26:42;;;;;;;;;;;22.10;89.50;;;;;;5114786;28;19999;-49
2022/12/01 07:29:08;;;;;;;;;;;22.10;89.70;;;;;;5095879;28;19913;-49
2022/12/01 07:31:34;;;;;;;;;;;22.10;89.60;;;;;;5104627;28;19919;-49
2022/12/01 07:34:00;;;;;;;;;;;22.10;89.40;;;;;;5115867;28;19967;-51
2022/12/01 07:36:25;;;;;;;;;;;22.10;89.40;;;;;;5099653;28;19915;-50
2022/12/01 07:38:51;;;;;;;;;;;22.20;89.60;;;;;;5101438;28;20275;-48
2022/12/01 07:41:20;;;;;;;;;;;22.20;89.60;;;;;;5116435;28;19914;-49
2022/12/01 07:43:46;;;;;;;;;;;22.20;89.60;;;;;;5114694;28;19904;-51
2022/12/01 07:46:23;;;;;;;;;;;22.20;89.60;;;;;;5118059;28;19908;-51
2022/12/01 07:48:48;;;;;;;;;;;22.20;89.60;;;;;;5115839;28;19986;-48
2022/12/01 07:51:17;;;;;;;;;;;22.20;89.60;;;;;;5118083;28;19950;-50
2022/12/01 07:53:44;;;;;;;;;;;22.20;89.70;;;;;;5108817;28;19915;-48
2022/12/01 07:56:10;;;;;;;;;;;22.30;89.70;;;;;;5116162;28;19912;-52
2022/12/01 07:58:35;;;;;;;;;;;22.30;89.70;;;;;;5112009;28;19908;-51
2022/12/01 08:01:04;;;;;;;;;;;22.30;89.70;;;;;;5105580;28;19957;-46
2022/12/01 08:03:30;;;;;;;;;;;22.30;89.80;;;;;;5117643;28;19908;-51
2022/12/01 08:05:59;;;;;;;;;;;22.30;89.80;;;;;;5104807;28;20269;-50
2022/12/01 08:08:24;;;;;;;;;;;22.30;89.80;;;;;;5111423;28;19947;-54
2022/12/01 08:10:50;;;;;;;;;;;22.30;89.90;;;;;;5112253;28;19959;-49
2022/12/01 08:13:16;;;;;;;;;;;22.30;89.80;;;;;;5097397;28;19918;-53
2022/12/01 08:15:41;;;;;;;;;;;22.30;89.80;;;;;;5112397;28;19921;-48
2022/12/01 08:18:07;;;;;;;;;;;22.20;89.90;;;;;;5110587;28;19911;-50
2022/12/01 08:20:32;;;;;;;;;;;22.20;90.00;;;;;;5105187;28;19916;-49
2022/12/01 08:23:01;;;;;;;;;;;22.20;90.00;;;;;;5090763;28;19908;-48
2022/12/01 08:25:27;;;;;;;;;;;22.20;90.00;;;;;;5096547;28;19983;-48
2022/12/01 08:27:52;;;;;;;;;;;22.20;90.00;;;;;;5096793;28;19927;-54
2022/12/01 08:30:18;;;;;;;;;;;22.20;90.00;;;;;;5097586;28;19908;-49
2022/12/01 08:32:43;;;;;;;;;;;22.20;90.00;;;;;;5111507;28;19970;-53
2022/12/01 08:35:09;;;;;;;;;;;22.30;90.00;;;;;;5111765;28;19912;-49
2022/12/01 08:37:34;;;;;;;;;;;22.30;90.00;;;;;;5116487;28;19904;-51
2022/12/01 08:40:00;;;;;;;;;;;22.30;90.00;;;;;;5096582;28;20253;-48
2022/12/01 08:42:25;;;;;;;;;;;22.30;90.00;;;;;;5098865;28;20296;-51
2022/12/01 08:44:51;;;;;;;;;;;22.30;90.00;;;;;;5096153;28;19907;-47
2022/12/01 08:47:16;;;;;;;;;;;22.30;90.00;;;;;;5116986;28;19926;-53
2022/12/01 08:49:41;;;;;;;;;;;22.30;90.10;;;;;;5103094;28;19953;-52
2022/12/01 08:52:07;;;;;;;;;;;22.30;90.10;;;;;;5113261;28;20270;-50
2022/12/01 08:54:32;;;;;;;;;;;22.30;90.00;;;;;;5111173;28;19912;-50
2022/12/01 08:56:58;;;;;;;;;;;22.30;90.00;;;;;;5114559;28;19908;-49
2022/12/01 08:59:23;;;;;;;;;;;22.40;90.00;;;;;;5114477;28;19939;-48
2022/12/01 09:01:52;;;;;;;;;;;22.40;90.00;;;;;;5107283;28;19908;-47
2022/12/01 09:04:22;;;;;;;;;;;22.40;90.00;;;;;;5091949;28;19916;-53
2022/12/01 09:06:49;;;;;;;;;;;22.40;90.00;;;;;;5088438;28;19914;-49
2022/12/01 09:09:18;;;;;;;;;;;22.40;90.00;;;;;;5116705;28;19910;-50
2022/12/01 09:11:45;;;;;;;;;;;22.40;90.00;;;;;;5113588;28;19916;-53
2022/12/01 09:14:11;;;;;;;;;;;22.40;90.00;;;;;;5111954;28;19953;-48
2022/12/01 09:16:37;;;;;;;;;;;22.40;90.00;;;;;;5105146;28;19922;-49
2022/12/01 09:19:02;;;;;;;;;;;22.40;90.00;;;;;;5113088;28;20313;-43
2022/12/01 09:21:30;;;;;;;;;;;22.50;90.10;;;;;;5115090;28;20342;-44
2022/12/01 09:23:55;;;;;;;;;;;22.50;90.00;;;;;;5112531;28;19915;-44
2022/12/01 09:26:21;;;;;;;;;;;22.50;90.00;;;;;;5116692;28;19903;-46
2022/12/01 09:28:48;;;;;;;;;;;22.50;89.90;;;;;;5110751;28;19915;-45
2022/12/01 09:31:14;;;;;;;;;;;22.50;89.90;;;;;;5107088;28;20661;-45
2022/12/01 09:33:40;;;;;;;;;;;22.40;89.80;;;;;;5111701;28;20451;-47
2022/12/01 09:36:06;;;;;;;;;;;22.50;89.80;;;;;;5112347;28;19916;-45
2022/12/01 09:38:33;;;;;;;;;;;22.50;89.80;;;;;;5111186;28;19916;-51
2022/12/01 09:40:59;;;;;;;;;;;22.50;89.90;;;;;;5104814;28;19954;-47
2022/12/01 09:43:27;;;;;;;;;;;22.50;89.80;;;;;;5111864;28;19911;-46
2022/12/01 09:45:59;;;;;;;;;;;22.50;89.90;;;;;;5113143;28;20243;-45
2022/12/01 09:48:41;;;;;;;;;;;22.50;89.80;;;;;;5108354;28;20288;-45
2022/12/01 09:51:14;;;;;;;;;;;22.50;89.80;;;;;;5075004;28;20257;-48
2022/12/01 09:53:40;;;;;;;;;;;22.50;89.80;;;;;;5103165;28;19907;-49
2022/12/01 09:56:05;;;;;;;;;;;22.50;89.70;;;;;;5113475;28;19918;-45
2022/12/01 09:58:31;;;;;;;;;;;22.50;89.70;;;;;;5102418;28;20007;-46
2022/12/01 10:00:57;;;;;;;;;;;22.50;89.70;;;;;;5074290;28;19908;-47
2022/12/01 10:03:25;;;;;;;;;;;22.50;89.80;;;;;;5094902;28;20011;-46
2022/12/01 10:05:54;;;;;;;;;;;22.50;89.70;;;;;;5093237;28;19957;-51
2022/12/01 10:08:24;;;;;;;;;;;22.50;89.80;;;;;;5112532;28;19907;-45
2022/12/01 10:11:06;;;;;;;;;;;22.50;89.90;;;;;;5069559;28;19925;-48
2022/12/01 10:13:31;;;;;;;;;;;22.50;90.00;;;;;;5044658;28;20378;-48
2022/12/01 10:15:57;;;;;;;;;;;22.50;89.80;;;;;;5050904;28;19932;-47
2022/12/01 10:18:25;;;;;;;;;;;22.50;89.80;;;;;;5051092;28;20260;-46
2022/12/01 10:21:11;;;;;;;;;;;22.50;89.80;;;;;;5050400;28;20306;-46
2022/12/01 10:23:38;;;;;;;;;;;22.50;89.80;;;;;;5051290;28;19905;-47
2022/12/01 10:26:12;;;;;;;;;;;22.50;89.80;;;;;;5050033;28;19956;-46
2022/12/01 10:28:48;;;;;;;;;;;22.50;89.80;;;;;;5050323;28;19909;-46
2022/12/01 10:31:25;;;;;;;;;;;22.50;89.80;;;;;;5057208;28;20331;-47
2022/12/01 10:34:20;;;;;;;;;;;22.50;89.80;;;;;;5052582;28;19909;-48
2022/12/01 10:36:46;;;;;;;;;;;22.50;89.80;;;;;;5049036;28;19913;-46
2022/12/01 10:39:17;;;;;;;;;;;22.50;89.90;;;;;;5049631;28;19928;-49
2022/12/01 10:41:43;;;;;;;;;;;22.40;89.80;;;;;;5048098;28;19989;-45
2022/12/01 10:44:08;;;;;;;;;;;22.40;89.90;;;;;;5049542;28;20415;-46
2022/12/01 10:46:44;;;;;;;;;;;22.40;89.80;;;;;;5049864;28;20336;-47
2022/12/01 10:49:14;;;;;;;;;;;22.40;89.80;;;;;;5050083;28;20012;-45
2022/12/01 10:51:47;;;;;;;;;;;22.40;89.70;;;;;;5048989;28;19913;-48
2022/12/01 10:54:12;;;;;;;;;;;22.40;89.80;;;;;;5050717;28;19905;-47
2022/12/01 10:56:39;;;;;;;;;;;22.30;89.60;;;;;;5048301;28;20407;-45
2022/12/01 10:59:20;;;;;;;;;;;22.40;89.80;;;;;;5050431;28;19912;-45
2022/12/01 11:01:46;;;;;;;;;;;22.30;90.00;;;;;;5049842;28;19909;-47
2022/12/01 11:04:30;;;;;;;;;;;22.40;89.90;;;;;;5050200;28;19950;-48
2022/12/01 11:06:55;;;;;;;;;;;22.40;89.80;;;;;;5049692;28;19913;-49
2022/12/01 11:09:26;;;;;;;;;;;22.40;89.70;;;;;;5056517;28;19944;-54
2022/12/01 11:12:00;;;;;;;;;;;22.40;89.70;;;;;;5069574;28;19948;-47
2022/12/01 11:14:32;;;;;;;;;;;22.40;89.70;;;;;;5051201;28;20370;-48
2022/12/01 11:17:12;;;;;;;;;;;22.40;89.60;;;;;;5068399;28;20015;-47
2022/12/01 11:19:38;;;;;;;;;;;22.40;89.30;;;;;;5067640;28;19913;-46
2022/12/01 11:22:21;;;;;;;;;;;22.40;89.50;;;;;;5054727;28;19916;-47
2022/12/01 11:24:53;;;;;;;;;;;22.40;89.60;;;;;;5052513;28;19947;-46
2022/12/01 11:27:18;;;;;;;;;;;22.40;89.50;;;;;;5053070;28;19912;-47
2022/12/01 11:29:45;;;;;;;;;;;22.40;89.50;;;;;;5054863;28;19985;-45
2022/12/01 11:32:15;;;;;;;;;;;22.40;89.50;;;;;;5069297;28;19912;-44
2022/12/01 11:34:41;;;;;;;;;;;22.50;89.50;;;;;;5056177;28;20046;-46
2022/12/01 11:37:08;;;;;;;;;;;22.40;89.40;;;;;;5055471;28;20015;-45
2022/12/01 11:39:34;;;;;;;;;;;22.50;89.30;;;;;;5037867;28;20003;-45
2022/12/01 11:42:01;;;;;;;;;;;22.50;89.30;;;;;;5054444;28;19931;-49
2022/12/01 11:44:27;;;;;;;;;;;22.50;89.20;;;;;;5052872;28;20419;-45
2022/12/01 11:46:52;;;;;;;;;;;22.50;89.40;;;;;;5052454;28;19948;-44
2022/12/01 11:49:22;;;;;;;;;;;22.50;89.30;;;;;;5050881;28;19924;-44
2022/12/01 11:51:48;;;;;;;;;;;22.50;89.20;;;;;;5051202;28;19913;-48
2022/12/01 11:54:17;;;;;;;;;;;22.50;89.00;;;;;;5055955;28;20282;-45
2022/12/01 11:56:44;;;;;;;;;;;22.50;89.10;;;;;;5055814;28;19909;-50
2022/12/01 11:59:12;;;;;;;;;;;22.50;89.20;;;;;;5054836;28;19912;-47
2022/12/01 12:01:38;;;;;;;;;;;22.50;89.10;;;;;;5053604;28;19913;-47
2022/12/01 12:04:28;;;;;;;;;;;22.50;89.10;;;;;;5055927;28;19909;-47
2022/12/01 12:06:57;;;;;;;;;;;22.50;89.20;;;;;;5052874;28;20252;-45
2022/12/01 12:09:29;;;;;;;;;;;22.40;89.20;;;;;;5050548;28;19928;-47
2022/12/01 12:11:55;;;;;;;;;;;22.50;89.10;;;;;;5052617;28;19955;-47
2022/12/01 12:14:20;;;;;;;;;;;22.40;89.20;;;;;;5055100;28;20398;-50
2022/12/01 12:17:01;;;;;;;;;;;22.40;89.20;;;;;;5052158;28;19924;-45
2022/12/01 12:19:37;;;;;;;;;;;22.50;89.30;;;;;;5035704;28;19913;-47
2022/12/01 12:22:06;;;;;;;;;;;22.40;88.80;;;;;;5054594;28;19913;-47
2022/12/01 12:24:58;;;;;;;;;;;22.50;89.40;;;;;;5053697;28;19939;-49
2022/12/01 12:27:32;;;;;;;;;;;22.50;89.30;;;;;;5011533;28;19921;-48
2022/12/01 12:30:06;;;;;;;;;;;22.50;89.20;;;;;;5046202;28;19952;-45
2022/12/01 12:32:38;;;;;;;;;;;22.50;89.30;;;;;;5058991;28;19948;-45
2022/12/01 12:35:15;;;;;;;;;;;22.50;89.30;;;;;;5054952;28;20523;-45
2022/12/01 12:37:49;;;;;;;;;;;22.50;89.40;;;;;;5053757;28;19920;-46
2022/12/01 12:40:15;;;;;;;;;;;22.50;89.30;;;;;;5055142;28;19908;-48
2022/12/01 12:42:59;;;;;;;;;;;22.50;89.30;;;;;;5052904;28;20410;-47
2022/12/01 12:45:29;;;;;;;;;;;22.50;89.40;;;;;;5053903;28;19913;-46
2022/12/01 12:48:12;;;;;;;;;;;22.50;89.40;;;;;;5054836;28;19913;-46
2022/12/01 12:50:50;;;;;;;;;;;22.50;89.40;;;;;;5051363;28;19972;-47
2022/12/01 12:53:20;;;;;;;;;;;22.50;89.40;;;;;;5037347;28;19913;-47
2022/12/01 12:55:55;;;;;;;;;;;22.50;89.40;;;;;;5049878;28;20330;-46
2022/12/01 12:58:41;;;;;;;;;;;22.50;89.30;;;;;;5054559;28;19909;-47
2022/12/01 13:01:16;;;;;;;;;;;22.50;89.40;;;;;;5052248;28;19921;-47
2022/12/01 13:03:45;;;;;;;;;;;22.50;89.50;;;;;;5053378;28;20311;-47
2022/12/01 13:06:17;;;;;;;;;;;22.50;89.40;;;;;;5054257;28;20360;-46
2022/12/01 13:08:51;;;;;;;;;;;22.50;89.40;;;;;;5051894;28;19927;-45
2022/12/01 13:11:26;;;;;;;;;;;22.50;89.50;;;;;;5014781;28;19988;-48
2022/12/01 13:13:57;;;;;;;;;;;22.50;89.50;;;;;;5013582;28;19981;-47
2022/12/01 13:16:29;;;;;;;;;;;22.50;89.60;;;;;;5014356;28;19984;-49
2022/12/01 13:19:01;;;;;;;;;;;22.50;89.60;;;;;;5013753;28;19909;-45
2022/12/01 13:21:29;;;;;;;;;;;22.50;89.90;;;;;;5012891;28;19914;-48
2022/12/01 13:23:54;;;;;;;;;;;22.40;89.80;;;;;;5010621;28;19924;-47
2022/12/01 13:26:20;;;;;;;;;;;22.40;89.80;;;;;;5010856;28;20347;-44
2022/12/01 13:28:48;;;;;;;;;;;22.40;89.90;;;;;;5011360;28;19988;-43
2022/12/01 13:31:14;;;;;;;;;;;22.40;90.00;;;;;;5011689;28;19952;-48
2022/12/01 13:34:03;;;;;;;;;;;22.40;90.00;;;;;;5012631;28;19920;-43
2022/12/01 13:36:29;;;;;;;;;;;22.40;90.00;;;;;;5010629;28;20376;-44
2022/12/01 13:38:57;;;;;;;;;;;22.40;89.90;;;;;;5014482;28;19913;-43
2022/12/01 13:41:28;;;;;;;;;;;22.40;89.80;;;;;;5011565;28;19910;-44
2022/12/01 13:44:00;;;;;;;;;;;22.40;89.80;;;;;;5011457;28;19936;-44
2022/12/01 13:46:27;;;;;;;;;;;22.40;90.00;;;;;;5013329;28;19909;-46
2022/12/01 13:48:54;;;;;;;;;;;22.40;90.00;;;;;;5009181;28;19920;-46
2022/12/01 13:51:19;;;;;;;;;;;22.40;89.50;;;;;;5012061;28;19939;-46
2022/12/01 13:54:07;;;;;;;;;;;22.40;89.50;;;;;;5009881;28;20361;-47
2022/12/01 13:56:37;;;;;;;;;;;22.40;89.60;;;;;;5008297;28;19996;-48
2022/12/01 13:59:22;;;;;;;;;;;22.40;89.50;;;;;;5010856;28;19916;-49
2022/12/01 14:01:48;;;;;;;;;;;22.40;89.50;;;;;;5003216;28;19916;-47
2022/12/01 14:04:13;;;;;;;;;;;22.40;89.50;;;;;;5014174;28;19913;-45
2022/12/01 14:06:57;;;;;;;;;;;22.40;89.40;;;;;;5010551;28;19968;-44
2022/12/01 14:09:35;;;;;;;;;;;22.40;89.60;;;;;;5021058;28;19927;-49
2022/12/01 14:12:05;;;;;;;;;;;22.40;89.50;;;;;;5049945;28;20371;-45
2022/12/01 14:14:35;;;;;;;;;;;22.40;89.40;;;;;;5052717;28;19913;-44
2022/12/01 14:17:02;;;;;;;;;;;22.40;89.30;;;;;;5051031;28;19913;-43
2022/12/01 14:19:30;;;;;;;;;;;22.40;89.40;;;;;;5051440;28;20344;-47
2022/12/01 14:21:56;;;;;;;;;;;22.40;89.50;;;;;;5053209;28;19915;-46
2022/12/01 14:24:24;;;;;;;;;;;22.50;89.50;;;;;;5052317;28;20347;-47
2022/12/01 14:26:50;;;;;;;;;;;22.50;89.40;;;;;;5051581;28;19951;-50
2022/12/01 14:29:26;;;;;;;;;;;22.50;89.60;;;;;;5051028;28;19924;-46
2022/12/01 14:31:52;;;;;;;;;;;22.50;89.60;;;;;;5046412;28;20065;-48
2022/12/01 14:34:29;;;;;;;;;;;22.50;89.50;;;;;;5037810;28;19913;-46